sensor_id;sensor_type;location;lat;lon;timestamp;P1;durP1;ratioP1;P2;durP2;ratioP2
57055;SDS011;42945;51.718;5.324;2022-12-20T00:00:42;5.30;;;2.75;;
57055;SDS011;42945;51.718;5.324;2022-12-20T00:03:08;5.18;;;2.78;;
57055;SDS011;42945;51.718;5.324;2022-12-20T00:05:37;4.40;;;2.53;;
57055;SDS011;42945;51.718;5.324;2022-12-20T00:08:05;6.07;;;2.30;;
57055;SDS011;42945;51.718;5.324;2022-12-20T00:10:34;5.68;;;2.50;;
57055;SDS011;42945;51.718;5.324;2022-12-20T00:13:00;6.00;;;2.20;;
57055;SDS011;42945;51.718;5.324;2022-12-20T00:15:25;4.97;;;2.22;;
57055;SDS011;42945;51.718;5.324;2022-12-20T00:17:51;3.97;;;2.40;;
57055;SDS011;42945;51.718;5.324;2022-12-20T00:20:16;7.53;;;2.28;;
57055;SDS011;42945;51.718;5.324;2022-12-20T00:22:42;5.15;;;2.28;;
57055;SDS011;42945;51.718;5.324;2022-12-20T00:25:07;5.35;;;2.80;;
57055;SDS011;42945;51.718;5.324;2022-12-20T00:27:33;5.20;;;2.30;;
57055;SDS011;42945;51.718;5.324;2022-12-20T00:29:58;6.50;;;2.70;;
57055;SDS011;42945;51.718;5.324;2022-12-20T00:32:24;4.10;;;2.45;;
57055;SDS011;42945;51.718;5.324;2022-12-20T00:34:49;3.58;;;2.35;;
57055;SDS011;42945;51.718;5.324;2022-12-20T00:37:14;6.55;;;2.17;;
57055;SDS011;42945;51.718;5.324;2022-12-20T00:39:39;5.63;;;2.47;;
57055;SDS011;42945;51.718;5.324;2022-12-20T00:42:05;4.50;;;2.33;;
57055;SDS011;42945;51.718;5.324;2022-12-20T00:44:31;6.55;;;2.40;;
57055;SDS011;42945;51.718;5.324;2022-12-20T00:46:56;5.88;;;2.60;;
57055;SDS011;42945;51.718;5.324;2022-12-20T00:49:21;6.82;;;2.13;;
57055;SDS011;42945;51.718;5.324;2022-12-20T00:51:46;5.25;;;2.08;;
57055;SDS011;42945;51.718;5.324;2022-12-20T00:54:12;7.53;;;2.40;;
57055;SDS011;42945;51.718;5.324;2022-12-20T00:56:37;6.72;;;2.35;;
57055;SDS011;42945;51.718;5.324;2022-12-20T00:59:03;6.03;;;2.20;;
57055;SDS011;42945;51.718;5.324;2022-12-20T01:01:30;6.75;;;2.47;;
57055;SDS011;42945;51.718;5.324;2022-12-20T01:03:57;5.60;;;2.47;;
57055;SDS011;42945;51.718;5.324;2022-12-20T01:06:23;5.03;;;2.10;;
57055;SDS011;42945;51.718;5.324;2022-12-20T01:08:49;5.75;;;2.40;;
57055;SDS011;42945;51.718;5.324;2022-12-20T01:11:19;6.22;;;2.42;;
57055;SDS011;42945;51.718;5.324;2022-12-20T01:13:47;5.57;;;2.40;;
57055;SDS011;42945;51.718;5.324;2022-12-20T01:16:36;4.30;;;2.28;;
57055;SDS011;42945;51.718;5.324;2022-12-20T01:19:02;3.42;;;2.50;;
57055;SDS011;42945;51.718;5.324;2022-12-20T01:21:28;8.55;;;2.55;;
57055;SDS011;42945;51.718;5.324;2022-12-20T01:23:54;6.68;;;2.72;;
57055;SDS011;42945;51.718;5.324;2022-12-20T01:26:21;9.35;;;2.92;;
57055;SDS011;42945;51.718;5.324;2022-12-20T01:28:50;7.00;;;2.70;;
57055;SDS011;42945;51.718;5.324;2022-12-20T01:31:18;7.15;;;2.85;;
57055;SDS011;42945;51.718;5.324;2022-12-20T01:33:45;7.93;;;2.90;;
57055;SDS011;42945;51.718;5.324;2022-12-20T01:36:45;7.25;;;3.15;;
57055;SDS011;42945;51.718;5.324;2022-12-20T01:41:37;4.30;;;2.42;;
57055;SDS011;42945;51.718;5.324;2022-12-20T01:44:04;5.60;;;3.28;;
57055;SDS011;42945;51.718;5.324;2022-12-20T01:46:50;5.93;;;3.17;;
57055;SDS011;42945;51.718;5.324;2022-12-20T01:51:55;7.55;;;3.50;;
57055;SDS011;42945;51.718;5.324;2022-12-20T01:54:29;5.28;;;3.53;;
57055;SDS011;42945;51.718;5.324;2022-12-20T01:59:58;6.03;;;3.28;;
57055;SDS011;42945;51.718;5.324;2022-12-20T02:02:24;5.40;;;3.47;;
57055;SDS011;42945;51.718;5.324;2022-12-20T02:04:51;7.57;;;3.35;;
57055;SDS011;42945;51.718;5.324;2022-12-20T02:07:18;8.05;;;3.63;;
57055;SDS011;42945;51.718;5.324;2022-12-20T02:09:47;8.07;;;3.65;;
57055;SDS011;42945;51.718;5.324;2022-12-20T02:12:14;7.65;;;3.42;;
57055;SDS011;42945;51.718;5.324;2022-12-20T02:34:39;9.30;;;3.53;;
57055;SDS011;42945;51.718;5.324;2022-12-20T02:37:08;5.35;;;3.22;;
57055;SDS011;42945;51.718;5.324;2022-12-20T02:39:34;8.73;;;3.55;;
57055;SDS011;42945;51.718;5.324;2022-12-20T02:42:04;5.43;;;3.13;;
57055;SDS011;42945;51.718;5.324;2022-12-20T02:44:34;7.15;;;3.70;;
57055;SDS011;42945;51.718;5.324;2022-12-20T02:47:26;6.07;;;3.53;;
57055;SDS011;42945;51.718;5.324;2022-12-20T02:49:57;5.85;;;3.28;;
57055;SDS011;42945;51.718;5.324;2022-12-20T02:52:23;6.35;;;3.28;;
57055;SDS011;42945;51.718;5.324;2022-12-20T02:54:54;6.65;;;3.15;;
57055;SDS011;42945;51.718;5.324;2022-12-20T02:57:24;7.75;;;3.25;;
57055;SDS011;42945;51.718;5.324;2022-12-20T03:00:03;6.60;;;3.22;;
57055;SDS011;42945;51.718;5.324;2022-12-20T03:02:32;7.40;;;3.60;;
57055;SDS011;42945;51.718;5.324;2022-12-20T03:05:19;7.05;;;3.13;;
57055;SDS011;42945;51.718;5.324;2022-12-20T03:07:46;5.97;;;3.08;;
57055;SDS011;42945;51.718;5.324;2022-12-20T03:10:12;12.35;;;3.50;;
57055;SDS011;42945;51.718;5.324;2022-12-20T03:12:37;8.82;;;3.05;;
57055;SDS011;42945;51.718;5.324;2022-12-20T03:15:02;11.68;;;3.60;;
57055;SDS011;42945;51.718;5.324;2022-12-20T03:17:28;11.77;;;3.72;;
57055;SDS011;42945;51.718;5.324;2022-12-20T03:19:56;9.95;;;3.20;;
57055;SDS011;42945;51.718;5.324;2022-12-20T03:22:21;8.35;;;3.25;;
57055;SDS011;42945;51.718;5.324;2022-12-20T03:24:47;8.13;;;3.10;;
57055;SDS011;42945;51.718;5.324;2022-12-20T03:27:16;11.00;;;3.20;;
57055;SDS011;42945;51.718;5.324;2022-12-20T03:29:41;9.40;;;3.30;;
57055;SDS011;42945;51.718;5.324;2022-12-20T03:32:07;7.57;;;2.88;;
57055;SDS011;42945;51.718;5.324;2022-12-20T03:34:32;7.78;;;3.33;;
57055;SDS011;42945;51.718;5.324;2022-12-20T03:36:57;9.52;;;2.95;;
57055;SDS011;42945;51.718;5.324;2022-12-20T03:39:23;8.73;;;3.20;;
57055;SDS011;42945;51.718;5.324;2022-12-20T03:41:49;8.43;;;2.95;;
57055;SDS011;42945;51.718;5.324;2022-12-20T03:44:15;7.22;;;3.15;;
57055;SDS011;42945;51.718;5.324;2022-12-20T03:46:40;7.32;;;3.08;;
57055;SDS011;42945;51.718;5.324;2022-12-20T03:49:05;9.77;;;3.35;;
57055;SDS011;42945;51.718;5.324;2022-12-20T03:51:30;8.07;;;2.83;;
57055;SDS011;42945;51.718;5.324;2022-12-20T03:53:56;8.25;;;2.50;;
57055;SDS011;42945;51.718;5.324;2022-12-20T03:56:22;7.85;;;2.70;;
57055;SDS011;42945;51.718;5.324;2022-12-20T03:58:47;7.15;;;2.70;;
57055;SDS011;42945;51.718;5.324;2022-12-20T04:01:17;6.07;;;2.63;;
57055;SDS011;42945;51.718;5.324;2022-12-20T04:03:43;8.43;;;2.70;;
57055;SDS011;42945;51.718;5.324;2022-12-20T04:06:09;5.00;;;2.50;;
57055;SDS011;42945;51.718;5.324;2022-12-20T04:08:35;9.20;;;2.80;;
57055;SDS011;42945;51.718;5.324;2022-12-20T04:11:00;7.97;;;2.50;;
57055;SDS011;42945;51.718;5.324;2022-12-20T04:13:47;4.15;;;2.40;;
57055;SDS011;42945;51.718;5.324;2022-12-20T04:16:15;5.88;;;2.45;;
57055;SDS011;42945;51.718;5.324;2022-12-20T04:18:42;6.90;;;2.70;;
57055;SDS011;42945;51.718;5.324;2022-12-20T04:21:08;6.85;;;2.30;;
57055;SDS011;42945;51.718;5.324;2022-12-20T04:23:34;9.38;;;2.58;;
57055;SDS011;42945;51.718;5.324;2022-12-20T04:26:01;7.30;;;2.20;;
57055;SDS011;42945;51.718;5.324;2022-12-20T04:28:28;4.47;;;2.40;;
57055;SDS011;42945;51.718;5.324;2022-12-20T04:30:53;3.85;;;2.45;;
57055;SDS011;42945;51.718;5.324;2022-12-20T04:33:19;3.42;;;2.40;;
57055;SDS011;42945;51.718;5.324;2022-12-20T04:35:45;4.43;;;2.13;;
57055;SDS011;42945;51.718;5.324;2022-12-20T04:38:10;6.82;;;2.47;;
57055;SDS011;42945;51.718;5.324;2022-12-20T04:40:36;4.28;;;2.30;;
57055;SDS011;42945;51.718;5.324;2022-12-20T04:43:01;4.63;;;2.13;;
57055;SDS011;42945;51.718;5.324;2022-12-20T04:45:26;6.22;;;2.55;;
57055;SDS011;42945;51.718;5.324;2022-12-20T04:47:52;4.80;;;2.40;;
57055;SDS011;42945;51.718;5.324;2022-12-20T04:50:17;3.10;;;2.40;;
57055;SDS011;42945;51.718;5.324;2022-12-20T04:52:43;4.28;;;2.58;;
57055;SDS011;42945;51.718;5.324;2022-12-20T04:55:27;4.30;;;2.00;;
57055;SDS011;42945;51.718;5.324;2022-12-20T04:57:53;5.45;;;2.50;;
57055;SDS011;42945;51.718;5.324;2022-12-20T05:00:21;3.78;;;2.50;;
57055;SDS011;42945;51.718;5.324;2022-12-20T05:02:46;3.95;;;2.30;;
57055;SDS011;42945;51.718;5.324;2022-12-20T05:05:12;5.85;;;2.63;;
57055;SDS011;42945;51.718;5.324;2022-12-20T05:07:38;8.48;;;2.50;;
57055;SDS011;42945;51.718;5.324;2022-12-20T05:10:04;6.47;;;2.70;;
57055;SDS011;42945;51.718;5.324;2022-12-20T05:12:30;5.93;;;2.78;;
57055;SDS011;42945;51.718;5.324;2022-12-20T05:14:55;10.00;;;2.80;;
57055;SDS011;42945;51.718;5.324;2022-12-20T05:17:20;7.50;;;2.55;;
57055;SDS011;42945;51.718;5.324;2022-12-20T05:19:46;7.45;;;2.60;;
57055;SDS011;42945;51.718;5.324;2022-12-20T05:22:11;5.15;;;2.28;;
57055;SDS011;42945;51.718;5.324;2022-12-20T05:24:55;6.90;;;2.47;;
57055;SDS011;42945;51.718;5.324;2022-12-20T05:27:39;3.65;;;2.20;;
57055;SDS011;42945;51.718;5.324;2022-12-20T05:30:04;4.10;;;2.50;;
57055;SDS011;42945;51.718;5.324;2022-12-20T05:32:30;4.70;;;2.35;;
57055;SDS011;42945;51.718;5.324;2022-12-20T05:34:55;6.13;;;2.78;;
57055;SDS011;42945;51.718;5.324;2022-12-20T05:37:21;7.18;;;2.55;;
57055;SDS011;42945;51.718;5.324;2022-12-20T05:39:46;7.35;;;2.58;;
57055;SDS011;42945;51.718;5.324;2022-12-20T05:42:11;4.93;;;2.53;;
57055;SDS011;42945;51.718;5.324;2022-12-20T05:44:37;5.68;;;2.50;;
57055;SDS011;42945;51.718;5.324;2022-12-20T05:47:02;5.95;;;2.00;;
57055;SDS011;42945;51.718;5.324;2022-12-20T05:49:27;5.22;;;2.40;;
57055;SDS011;42945;51.718;5.324;2022-12-20T05:51:53;5.57;;;2.28;;
57055;SDS011;42945;51.718;5.324;2022-12-20T05:54:19;3.75;;;1.95;;
57055;SDS011;42945;51.718;5.324;2022-12-20T05:56:45;3.95;;;1.92;;
57055;SDS011;42945;51.718;5.324;2022-12-20T05:59:10;5.15;;;2.05;;
57055;SDS011;42945;51.718;5.324;2022-12-20T06:01:36;6.43;;;2.28;;
57055;SDS011;42945;51.718;5.324;2022-12-20T06:04:01;2.92;;;1.88;;
57055;SDS011;42945;51.718;5.324;2022-12-20T06:06:26;6.97;;;2.13;;
57055;SDS011;42945;51.718;5.324;2022-12-20T06:08:52;5.47;;;2.50;;
57055;SDS011;42945;51.718;5.324;2022-12-20T06:11:20;6.10;;;2.25;;
57055;SDS011;42945;51.718;5.324;2022-12-20T06:13:45;4.10;;;1.83;;
57055;SDS011;42945;51.718;5.324;2022-12-20T06:16:11;4.93;;;2.10;;
57055;SDS011;42945;51.718;5.324;2022-12-20T06:18:36;5.05;;;2.00;;
57055;SDS011;42945;51.718;5.324;2022-12-20T06:21:01;4.38;;;1.92;;
57055;SDS011;42945;51.718;5.324;2022-12-20T06:23:27;5.85;;;1.92;;
57055;SDS011;42945;51.718;5.324;2022-12-20T06:25:52;8.23;;;1.92;;
57055;SDS011;42945;51.718;5.324;2022-12-20T06:28:17;2.70;;;1.90;;
57055;SDS011;42945;51.718;5.324;2022-12-20T06:30:52;5.35;;;1.70;;
57055;SDS011;42945;51.718;5.324;2022-12-20T06:33:22;3.40;;;1.75;;
57055;SDS011;42945;51.718;5.324;2022-12-20T06:35:48;3.45;;;1.50;;
57055;SDS011;42945;51.718;5.324;2022-12-20T06:38:14;4.50;;;1.90;;
57055;SDS011;42945;51.718;5.324;2022-12-20T06:40:40;4.80;;;1.20;;
57055;SDS011;42945;51.718;5.324;2022-12-20T06:43:05;4.43;;;1.70;;
57055;SDS011;42945;51.718;5.324;2022-12-20T06:45:30;3.90;;;1.60;;
57055;SDS011;42945;51.718;5.324;2022-12-20T06:47:56;6.38;;;1.70;;
57055;SDS011;42945;51.718;5.324;2022-12-20T06:50:22;4.30;;;1.92;;
57055;SDS011;42945;51.718;5.324;2022-12-20T06:52:47;5.65;;;1.67;;
57055;SDS011;42945;51.718;5.324;2022-12-20T06:55:13;3.03;;;1.80;;
57055;SDS011;42945;51.718;5.324;2022-12-20T06:57:38;5.85;;;1.60;;
57055;SDS011;42945;51.718;5.324;2022-12-20T07:00:05;3.50;;;1.52;;
57055;SDS011;42945;51.718;5.324;2022-12-20T07:02:32;4.20;;;1.70;;
57055;SDS011;42945;51.718;5.324;2022-12-20T07:04:58;4.05;;;1.60;;
57055;SDS011;42945;51.718;5.324;2022-12-20T07:07:23;6.57;;;1.70;;
57055;SDS011;42945;51.718;5.324;2022-12-20T07:09:49;5.35;;;1.70;;
57055;SDS011;42945;51.718;5.324;2022-12-20T07:12:14;3.03;;;1.50;;
57055;SDS011;42945;51.718;5.324;2022-12-20T07:14:40;2.47;;;1.30;;
57055;SDS011;42945;51.718;5.324;2022-12-20T07:17:05;7.45;;;1.90;;
57055;SDS011;42945;51.718;5.324;2022-12-20T07:19:31;3.50;;;1.33;;
57055;SDS011;42945;51.718;5.324;2022-12-20T07:21:57;2.65;;;1.52;;
57055;SDS011;42945;51.718;5.324;2022-12-20T07:24:22;5.40;;;1.30;;
57055;SDS011;42945;51.718;5.324;2022-12-20T07:26:48;5.30;;;1.50;;
57055;SDS011;42945;51.718;5.324;2022-12-20T07:29:13;3.22;;;1.50;;
57055;SDS011;42945;51.718;5.324;2022-12-20T07:31:38;3.13;;;1.50;;
57055;SDS011;42945;51.718;5.324;2022-12-20T07:34:04;3.70;;;1.65;;
57055;SDS011;42945;51.718;5.324;2022-12-20T07:36:29;4.82;;;1.40;;
57055;SDS011;42945;51.718;5.324;2022-12-20T07:38:55;4.57;;;1.83;;
57055;SDS011;42945;51.718;5.324;2022-12-20T07:41:20;3.10;;;1.70;;
57055;SDS011;42945;51.718;5.324;2022-12-20T07:43:46;4.43;;;1.60;;
57055;SDS011;42945;51.718;5.324;2022-12-20T07:46:12;6.75;;;1.88;;
57055;SDS011;42945;51.718;5.324;2022-12-20T07:48:39;5.22;;;1.70;;
57055;SDS011;42945;51.718;5.324;2022-12-20T07:51:06;6.53;;;1.42;;
57055;SDS011;42945;51.718;5.324;2022-12-20T07:53:56;7.82;;;1.63;;
57055;SDS011;42945;51.718;5.324;2022-12-20T07:56:24;2.50;;;1.40;;
57055;SDS011;42945;51.718;5.324;2022-12-20T07:58:52;4.07;;;1.42;;
57055;SDS011;42945;51.718;5.324;2022-12-20T08:01:22;3.70;;;1.92;;
57055;SDS011;42945;51.718;5.324;2022-12-20T08:03:48;4.03;;;1.60;;
57055;SDS011;42945;51.718;5.324;2022-12-20T08:06:19;4.80;;;1.75;;
57055;SDS011;42945;51.718;5.324;2022-12-20T08:08:46;4.18;;;1.63;;
57055;SDS011;42945;51.718;5.324;2022-12-20T08:11:15;4.05;;;1.40;;
57055;SDS011;42945;51.718;5.324;2022-12-20T08:13:42;4.25;;;1.50;;
57055;SDS011;42945;51.718;5.324;2022-12-20T08:16:08;4.82;;;1.70;;
57055;SDS011;42945;51.718;5.324;2022-12-20T08:18:34;4.30;;;1.50;;
57055;SDS011;42945;51.718;5.324;2022-12-20T08:20:59;4.10;;;1.77;;
57055;SDS011;42945;51.718;5.324;2022-12-20T08:23:25;3.83;;;1.52;;
57055;SDS011;42945;51.718;5.324;2022-12-20T08:25:51;5.65;;;1.73;;
57055;SDS011;42945;51.718;5.324;2022-12-20T08:28:17;3.78;;;1.70;;
57055;SDS011;42945;51.718;5.324;2022-12-20T08:30:44;6.13;;;1.73;;
57055;SDS011;42945;51.718;5.324;2022-12-20T08:33:10;5.07;;;1.70;;
57055;SDS011;42945;51.718;5.324;2022-12-20T08:35:36;2.88;;;1.80;;
57055;SDS011;42945;51.718;5.324;2022-12-20T08:38:01;6.82;;;1.75;;
57055;SDS011;42945;51.718;5.324;2022-12-20T08:40:27;4.72;;;2.10;;
57055;SDS011;42945;51.718;5.324;2022-12-20T08:42:52;3.08;;;1.58;;
57055;SDS011;42945;51.718;5.324;2022-12-20T08:45:18;8.25;;;1.90;;
57055;SDS011;42945;51.718;5.324;2022-12-20T08:47:44;5.15;;;1.90;;
57055;SDS011;42945;51.718;5.324;2022-12-20T08:50:09;3.83;;;1.88;;
57055;SDS011;42945;51.718;5.324;2022-12-20T08:52:35;7.53;;;1.98;;
57055;SDS011;42945;51.718;5.324;2022-12-20T08:55:00;4.78;;;2.10;;
57055;SDS011;42945;51.718;5.324;2022-12-20T08:57:29;3.95;;;1.83;;
57055;SDS011;42945;51.718;5.324;2022-12-20T08:59:54;7.25;;;2.35;;
57055;SDS011;42945;51.718;5.324;2022-12-20T09:02:20;3.65;;;1.98;;
57055;SDS011;42945;51.718;5.324;2022-12-20T09:04:45;5.45;;;2.15;;
57055;SDS011;42945;51.718;5.324;2022-12-20T09:07:11;5.57;;;2.33;;
57055;SDS011;42945;51.718;5.324;2022-12-20T09:09:39;5.10;;;2.17;;
57055;SDS011;42945;51.718;5.324;2022-12-20T09:12:04;9.48;;;2.72;;
57055;SDS011;42945;51.718;5.324;2022-12-20T09:14:31;3.90;;;2.22;;
57055;SDS011;42945;51.718;5.324;2022-12-20T09:16:57;5.90;;;2.08;;
57055;SDS011;42945;51.718;5.324;2022-12-20T09:19:22;5.18;;;2.33;;
57055;SDS011;42945;51.718;5.324;2022-12-20T09:21:48;8.32;;;2.67;;
57055;SDS011;42945;51.718;5.324;2022-12-20T09:24:13;3.50;;;2.08;;
57055;SDS011;42945;51.718;5.324;2022-12-20T09:26:39;4.20;;;2.30;;
57055;SDS011;42945;51.718;5.324;2022-12-20T09:29:07;7.90;;;3.15;;
57055;SDS011;42945;51.718;5.324;2022-12-20T09:31:33;4.65;;;2.10;;
57055;SDS011;42945;51.718;5.324;2022-12-20T09:33:58;5.03;;;2.83;;
57055;SDS011;42945;51.718;5.324;2022-12-20T09:36:25;5.45;;;2.40;;
57055;SDS011;42945;51.718;5.324;2022-12-20T09:38:52;7.38;;;2.10;;
57055;SDS011;42945;51.718;5.324;2022-12-20T09:41:26;5.63;;;2.17;;
57055;SDS011;42945;51.718;5.324;2022-12-20T09:43:56;5.22;;;2.20;;
57055;SDS011;42945;51.718;5.324;2022-12-20T09:46:22;5.70;;;2.60;;
57055;SDS011;42945;51.718;5.324;2022-12-20T09:48:49;8.38;;;3.08;;
57055;SDS011;42945;51.718;5.324;2022-12-20T09:51:32;6.30;;;2.67;;
57055;SDS011;42945;51.718;5.324;2022-12-20T09:54:15;6.72;;;2.60;;
57055;SDS011;42945;51.718;5.324;2022-12-20T09:57:00;5.05;;;2.60;;
57055;SDS011;42945;51.718;5.324;2022-12-20T09:59:32;8.85;;;2.80;;
57055;SDS011;42945;51.718;5.324;2022-12-20T10:01:59;5.32;;;2.60;;
57055;SDS011;42945;51.718;5.324;2022-12-20T10:04:27;7.57;;;2.45;;
57055;SDS011;42945;51.718;5.324;2022-12-20T10:09:42;5.25;;;2.70;;
57055;SDS011;42945;51.718;5.324;2022-12-20T10:23:33;7.90;;;3.10;;
57055;SDS011;42945;51.718;5.324;2022-12-20T10:26:08;7.32;;;2.60;;
57055;SDS011;42945;51.718;5.324;2022-12-20T10:28:35;6.57;;;2.63;;
57055;SDS011;42945;51.718;5.324;2022-12-20T10:31:01;7.38;;;2.60;;
57055;SDS011;42945;51.718;5.324;2022-12-20T10:33:31;6.97;;;2.80;;
57055;SDS011;42945;51.718;5.324;2022-12-20T10:39:00;4.95;;;2.90;;
57055;SDS011;42945;51.718;5.324;2022-12-20T10:41:31;6.72;;;3.10;;
57055;SDS011;42945;51.718;5.324;2022-12-20T10:49:26;6.57;;;2.70;;
57055;SDS011;42945;51.718;5.324;2022-12-20T10:51:57;5.22;;;2.38;;
57055;SDS011;42945;51.718;5.324;2022-12-20T10:54:33;8.60;;;2.45;;
57055;SDS011;42945;51.718;5.324;2022-12-20T10:56:59;8.07;;;2.80;;
57055;SDS011;42945;51.718;5.324;2022-12-20T10:59:36;4.60;;;2.60;;
57055;SDS011;42945;51.718;5.324;2022-12-20T11:07:35;3.75;;;2.47;;
57055;SDS011;42945;51.718;5.324;2022-12-20T11:10:17;5.30;;;2.63;;
57055;SDS011;42945;51.718;5.324;2022-12-20T11:12:52;5.05;;;3.33;;
57055;SDS011;42945;51.718;5.324;2022-12-20T11:15:23;7.63;;;3.10;;
57055;SDS011;42945;51.718;5.324;2022-12-20T11:17:51;5.53;;;2.97;;
57055;SDS011;42945;51.718;5.324;2022-12-20T11:26:35;7.07;;;3.80;;
57055;SDS011;42945;51.718;5.324;2022-12-20T11:29:38;7.22;;;3.10;;
57055;SDS011;42945;51.718;5.324;2022-12-20T11:32:26;6.95;;;3.53;;
57055;SDS011;42945;51.718;5.324;2022-12-20T11:37:48;8.35;;;3.20;;
57055;SDS011;42945;51.718;5.324;2022-12-20T11:40:29;6.57;;;3.17;;
57055;SDS011;42945;51.718;5.324;2022-12-20T11:51:45;8.43;;;3.80;;
57055;SDS011;42945;51.718;5.324;2022-12-20T11:56:58;9.55;;;3.42;;
57055;SDS011;42945;51.718;5.324;2022-12-20T11:59:30;10.55;;;4.40;;
57055;SDS011;42945;51.718;5.324;2022-12-20T12:04:57;10.85;;;4.30;;
57055;SDS011;42945;51.718;5.324;2022-12-20T12:07:30;9.38;;;3.90;;
57055;SDS011;42945;51.718;5.324;2022-12-20T12:10:02;7.50;;;4.18;;
57055;SDS011;42945;51.718;5.324;2022-12-20T12:13:14;12.48;;;4.97;;
57055;SDS011;42945;51.718;5.324;2022-12-20T12:15:29;8.38;;;4.85;;
57055;SDS011;42945;51.718;5.324;2022-12-20T12:18:02;11.60;;;4.38;;
57055;SDS011;42945;51.718;5.324;2022-12-20T12:23:25;6.55;;;4.05;;
57055;SDS011;42945;51.718;5.324;2022-12-20T12:25:58;7.18;;;4.15;;
57055;SDS011;42945;51.718;5.324;2022-12-20T12:30:58;9.43;;;6.00;;
57055;SDS011;42945;51.718;5.324;2022-12-20T12:33:36;6.95;;;3.65;;
57055;SDS011;42945;51.718;5.324;2022-12-20T12:36:15;8.93;;;4.43;;
57055;SDS011;42945;51.718;5.324;2022-12-20T12:45:04;9.13;;;5.03;;
57055;SDS011;42945;51.718;5.324;2022-12-20T12:48:01;6.63;;;3.97;;
57055;SDS011;42945;51.718;5.324;2022-12-20T12:50:35;7.38;;;4.20;;
57055;SDS011;42945;51.718;5.324;2022-12-20T12:53:07;6.55;;;4.28;;
57055;SDS011;42945;51.718;5.324;2022-12-20T12:55:41;7.38;;;4.30;;
57055;SDS011;42945;51.718;5.324;2022-12-20T12:58:12;8.32;;;4.07;;
57055;SDS011;42945;51.718;5.324;2022-12-20T13:01:45;6.25;;;3.85;;
57055;SDS011;42945;51.718;5.324;2022-12-20T13:11:31;9.57;;;5.80;;
57055;SDS011;42945;51.718;5.324;2022-12-20T13:16:45;9.63;;;4.97;;
57055;SDS011;42945;51.718;5.324;2022-12-20T13:19:12;8.10;;;5.05;;
57055;SDS011;42945;51.718;5.324;2022-12-20T13:21:43;8.60;;;4.38;;
57055;SDS011;42945;51.718;5.324;2022-12-20T13:30:23;7.13;;;4.50;;
57055;SDS011;42945;51.718;5.324;2022-12-20T13:37:54;9.95;;;4.15;;
57055;SDS011;42945;51.718;5.324;2022-12-20T13:40:24;8.57;;;4.85;;
57055;SDS011;42945;51.718;5.324;2022-12-20T13:42:55;7.13;;;3.55;;
57055;SDS011;42945;51.718;5.324;2022-12-20T13:45:23;7.15;;;3.60;;
57055;SDS011;42945;51.718;5.324;2022-12-20T13:47:52;7.22;;;4.80;;
57055;SDS011;42945;51.718;5.324;2022-12-20T13:50:23;8.90;;;5.18;;
57055;SDS011;42945;51.718;5.324;2022-12-20T13:52:52;8.20;;;5.13;;
57055;SDS011;42945;51.718;5.324;2022-12-20T13:55:25;7.53;;;4.65;;
57055;SDS011;42945;51.718;5.324;2022-12-20T13:58:08;8.05;;;4.82;;
57055;SDS011;42945;51.718;5.324;2022-12-20T14:00:37;9.65;;;5.30;;
57055;SDS011;42945;51.718;5.324;2022-12-20T14:03:03;10.25;;;4.45;;
57055;SDS011;42945;51.718;5.324;2022-12-20T14:05:37;7.95;;;4.30;;
57055;SDS011;42945;51.718;5.324;2022-12-20T14:08:04;5.00;;;3.65;;
57055;SDS011;42945;51.718;5.324;2022-12-20T14:10:33;7.75;;;4.32;;
57055;SDS011;42945;51.718;5.324;2022-12-20T14:13:00;8.45;;;5.65;;
57055;SDS011;42945;51.718;5.324;2022-12-20T14:15:32;7.65;;;4.43;;
57055;SDS011;42945;51.718;5.324;2022-12-20T14:18:05;6.95;;;4.00;;
57055;SDS011;42945;51.718;5.324;2022-12-20T14:20:46;7.97;;;3.67;;
57055;SDS011;42945;51.718;5.324;2022-12-20T14:23:18;6.68;;;3.40;;
57055;SDS011;42945;51.718;5.324;2022-12-20T14:25:48;6.55;;;4.10;;
57055;SDS011;42945;51.718;5.324;2022-12-20T14:28:19;5.70;;;3.70;;
57055;SDS011;42945;51.718;5.324;2022-12-20T14:30:51;6.57;;;3.70;;
57055;SDS011;42945;51.718;5.324;2022-12-20T14:33:18;66.68;;;41.13;;
57055;SDS011;42945;51.718;5.324;2022-12-20T14:35:46;88.07;;;42.08;;
57055;SDS011;42945;51.718;5.324;2022-12-20T14:38:19;9.98;;;4.03;;
57055;SDS011;42945;51.718;5.324;2022-12-20T14:40:47;7.38;;;4.10;;
57055;SDS011;42945;51.718;5.324;2022-12-20T14:43:13;6.90;;;3.70;;
57055;SDS011;42945;51.718;5.324;2022-12-20T14:48:46;5.47;;;3.65;;
57055;SDS011;42945;51.718;5.324;2022-12-20T14:51:12;6.60;;;3.80;;
57055;SDS011;42945;51.718;5.324;2022-12-20T14:56:17;7.18;;;3.85;;
57055;SDS011;42945;51.718;5.324;2022-12-20T14:58:44;6.15;;;3.63;;
57055;SDS011;42945;51.718;5.324;2022-12-20T15:01:25;7.32;;;4.35;;
57055;SDS011;42945;51.718;5.324;2022-12-20T15:03:56;10.23;;;5.03;;
57055;SDS011;42945;51.718;5.324;2022-12-20T15:09:16;9.25;;;3.85;;
57055;SDS011;42945;51.718;5.324;2022-12-20T15:11:43;6.45;;;4.18;;
57055;SDS011;42945;51.718;5.324;2022-12-20T15:14:20;5.00;;;3.60;;
57055;SDS011;42945;51.718;5.324;2022-12-20T15:17:13;7.45;;;4.30;;
57055;SDS011;42945;51.718;5.324;2022-12-20T15:19:40;9.20;;;5.10;;
57055;SDS011;42945;51.718;5.324;2022-12-20T15:22:05;9.73;;;4.60;;
57055;SDS011;42945;51.718;5.324;2022-12-20T15:24:39;9.77;;;4.82;;
57055;SDS011;42945;51.718;5.324;2022-12-20T15:27:05;7.55;;;4.60;;
57055;SDS011;42945;51.718;5.324;2022-12-20T15:29:36;6.43;;;4.10;;
57055;SDS011;42945;51.718;5.324;2022-12-20T15:32:22;8.05;;;4.50;;
57055;SDS011;42945;51.718;5.324;2022-12-20T15:34:53;8.82;;;4.43;;
57055;SDS011;42945;51.718;5.324;2022-12-20T15:37:19;7.70;;;4.63;;
57055;SDS011;42945;51.718;5.324;2022-12-20T15:39:45;8.35;;;4.82;;
57055;SDS011;42945;51.718;5.324;2022-12-20T15:42:12;9.10;;;5.05;;
57055;SDS011;42945;51.718;5.324;2022-12-20T15:44:46;10.38;;;5.15;;
57055;SDS011;42945;51.718;5.324;2022-12-20T15:47:14;10.33;;;6.00;;
57055;SDS011;42945;51.718;5.324;2022-12-20T15:49:40;7.72;;;4.90;;
57055;SDS011;42945;51.718;5.324;2022-12-20T15:52:11;10.73;;;5.80;;
57055;SDS011;42945;51.718;5.324;2022-12-20T15:54:43;8.43;;;5.35;;
57055;SDS011;42945;51.718;5.324;2022-12-20T15:57:10;10.15;;;5.57;;
57055;SDS011;42945;51.718;5.324;2022-12-20T15:59:37;10.98;;;6.30;;
57055;SDS011;42945;51.718;5.324;2022-12-20T16:02:09;10.07;;;5.97;;
57055;SDS011;42945;51.718;5.324;2022-12-20T16:04:46;9.63;;;6.13;;
57055;SDS011;42945;51.718;5.324;2022-12-20T16:07:12;12.68;;;6.03;;
57055;SDS011;42945;51.718;5.324;2022-12-20T16:09:37;11.73;;;6.07;;
57055;SDS011;42945;51.718;5.324;2022-12-20T16:12:04;9.93;;;6.25;;
57055;SDS011;42945;51.718;5.324;2022-12-20T16:14:37;11.98;;;6.78;;
57055;SDS011;42945;51.718;5.324;2022-12-20T16:17:03;11.75;;;7.22;;
57055;SDS011;42945;51.718;5.324;2022-12-20T16:19:29;11.73;;;6.43;;
57055;SDS011;42945;51.718;5.324;2022-12-20T16:21:55;13.32;;;7.43;;
57055;SDS011;42945;51.718;5.324;2022-12-20T16:24:21;12.10;;;7.53;;
57055;SDS011;42945;51.718;5.324;2022-12-20T16:26:50;10.93;;;7.05;;
57055;SDS011;42945;51.718;5.324;2022-12-20T16:29:15;10.88;;;7.35;;
57055;SDS011;42945;51.718;5.324;2022-12-20T16:31:41;11.25;;;7.45;;
57055;SDS011;42945;51.718;5.324;2022-12-20T16:34:16;12.75;;;7.50;;
57055;SDS011;42945;51.718;5.324;2022-12-20T16:36:43;13.43;;;8.52;;
57055;SDS011;42945;51.718;5.324;2022-12-20T16:39:08;11.80;;;7.35;;
57055;SDS011;42945;51.718;5.324;2022-12-20T16:41:34;13.65;;;8.98;;
57055;SDS011;42945;51.718;5.324;2022-12-20T16:44:00;14.55;;;8.35;;
57055;SDS011;42945;51.718;5.324;2022-12-20T16:46:27;15.25;;;9.60;;
57055;SDS011;42945;51.718;5.324;2022-12-20T16:48:55;14.13;;;9.02;;
57055;SDS011;42945;51.718;5.324;2022-12-20T16:51:33;15.95;;;9.52;;
57055;SDS011;42945;51.718;5.324;2022-12-20T16:54:12;15.73;;;9.55;;
57055;SDS011;42945;51.718;5.324;2022-12-20T16:56:40;14.20;;;9.43;;